Time;durP1;ratioP1;P1;durP2;ratioP2;P2;SDS_P1;SDS_P2;PMS_P1;PMS_P2;Temp;Humidity;BMP_temperature;BMP_pressure;BME280_temperature;BME280_humidity;BME280_pressure;Samples;Min_cycle;Max_cycle;Signal;HPM_P1;HPM_P2
2024/01/16 00:01:43;;;;;;;11.27;5.60;;;;;;;0.24;100.00;97033.28;5063849;28;20044;-55
2024/01/16 00:04:12;;;;;;;8.98;4.45;;;;;;;0.18;99.36;97036.88;5092640;28;20131;-54
2024/01/16 00:06:42;;;;;;;11.98;5.47;;;;;;;0.18;98.21;97028.38;5066469;28;20694;-57
2024/01/16 00:09:08;;;;;;;11.65;5.00;;;;;;;0.29;99.47;97036.50;5065543;28;20043;-56
2024/01/16 00:11:34;;;;;;;10.65;4.78;;;;;;;0.19;98.83;97028.34;5064580;28;20040;-57
2024/01/16 00:14:00;;;;;;;11.95;5.50;;;;;;;0.26;97.67;97041.72;5061165;28;20106;-57
2024/01/16 00:16:45;;;;;;;8.43;4.90;;;;;;;0.28;99.07;97029.72;5063811;28;20040;-54
2024/01/16 00:21:56;;;;;;;13.27;5.28;;;;;;;0.23;96.44;97032.44;5063510;28;20047;-56
2024/01/16 00:24:41;;;;;;;8.23;3.53;;;;;;;0.25;97.29;97033.22;5062581;28;20041;-57
2024/01/16 00:27:08;;;;;;;8.75;4.50;;;;;;;0.25;95.85;97033.22;5065629;28;20037;-57
2024/01/16 00:29:52;;;;;;;10.38;4.72;;;;;;;0.22;94.86;97024.81;5065372;28;20047;-56
2024/01/16 00:32:18;;;;;;;10.18;4.88;;;;;;;0.00;93.52;97004.34;5064247;28;20040;-58
2024/01/16 00:34:44;;;;;;;11.65;4.07;;;;;;;0.26;95.01;97036.63;5063726;28;20036;-56
2024/01/16 00:37:10;;;;;;;10.23;5.00;;;;;;;0.24;94.65;97029.00;5065187;28;20042;-60
2024/01/16 00:39:55;;;;;;;8.25;4.18;;;;;;;0.27;96.27;97034.00;5063308;28;20071;-59
2024/01/16 00:42:20;;;;;;;11.27;5.30;;;;;;;0.32;97.18;97034.66;5088288;28;20036;-58
2024/01/16 00:44:46;;;;;;;13.80;6.50;;;;;;;0.31;97.68;97035.56;5061823;28;20056;-57
2024/01/16 00:47:12;;;;;;;10.25;4.68;;;;;;;0.28;97.28;97030.56;5047791;28;20087;-58
2024/01/16 00:49:38;;;;;;;6.15;3.97;;;;;;;0.31;96.99;97037.28;5063620;28;20673;-58
2024/01/16 00:52:04;;;;;;;8.93;5.30;;;;;;;0.27;95.46;97028.88;5060416;28;20504;-60
2024/01/16 00:54:30;;;;;;;8.07;4.18;;;;;;;0.27;94.19;97033.16;5064033;28;20056;-60
2024/01/16 00:56:59;;;;;;;7.93;4.72;;;;;;;0.19;93.33;97018.13;5063581;28;20082;-56
2024/01/16 00:59:26;;;;;;;9.43;4.68;;;;;;;0.23;92.41;97018.84;5063487;28;20067;-58
2024/01/16 01:01:52;;;;;;;9.82;3.50;;;;;;;0.22;92.24;97019.72;5076418;28;20047;-58
2024/01/16 01:07:02;;;;;;;7.45;4.05;;;;;;;0.22;93.69;97018.00;5064218;28;20149;-58
2024/01/16 01:09:28;;;;;;;12.63;5.43;;;;;;;0.17;92.92;97022.44;5030237;28;20048;-61
2024/01/16 01:11:54;;;;;;;9.15;5.05;;;;;;;0.16;93.39;97025.06;5063063;28;20051;-58
2024/01/16 01:14:20;;;;;;;11.05;5.38;;;;;;;0.11;92.96;97032.03;5061379;28;20048;-58
2024/01/16 01:16:46;;;;;;;13.65;5.63;;;;;;;0.11;93.63;97022.66;5086851;28;20682;-58
2024/01/16 01:19:12;;;;;;;10.32;5.35;;;;;;;0.14;94.55;97014.91;5062459;28;20035;-58
2024/01/16 01:21:38;;;;;;;14.35;5.80;;;;;;;0.17;95.71;97019.88;5057440;28;20039;-53
2024/01/16 01:24:04;;;;;;;12.18;5.63;;;;;;;0.12;94.23;97015.81;5064881;28;20044;-59
2024/01/16 01:26:30;;;;;;;9.73;5.40;;;;;;;0.12;92.66;97015.81;5064447;28;20123;-58
2024/01/16 01:28:56;;;;;;;9.85;4.75;;;;;;;0.16;93.13;97022.50;5063837;28;20040;-60
2024/01/16 01:31:22;;;;;;;12.60;5.63;;;;;;;0.18;94.70;97010.50;5058610;28;20051;-57
2024/01/16 01:33:48;;;;;;;9.00;4.85;;;;;;;0.21;96.60;97012.97;5059076;28;20117;-58
2024/01/16 01:36:14;;;;;;;8.40;4.53;;;;;;;0.19;96.74;97007.06;5071496;28;20044;-57
2024/01/16 01:38:59;;;;;;;13.30;6.53;;;;;;;0.06;96.07;96983.69;5064688;28;20040;-57
2024/01/16 01:41:43;;;;;;;9.75;5.22;;;;;;;0.25;97.88;97009.41;5059362;28;20496;-58
2024/01/16 01:44:28;;;;;;;10.48;4.82;;;;;;;0.31;98.21;97012.56;5061620;28;20696;-58
2024/01/16 01:46:55;;;;;;;11.57;5.15;;;;;;;-0.12;96.92;96943.50;5062773;28;20044;-58
2024/01/16 01:49:21;;;;;;;10.57;4.95;;;;;;;0.00;96.70;96971.97;5062744;28;20040;-58
2024/01/16 01:54:51;;;;;;;12.43;5.88;;;;;;;0.25;98.10;97006.84;5058862;28;20047;-59
2024/01/16 01:57:18;;;;;;;8.77;4.53;;;;;;;0.22;97.07;97004.38;5063556;28;20685;-59
2024/01/16 01:59:44;;;;;;;9.60;5.15;;;;;;;0.13;95.40;96984.28;5058048;28;20046;-57
2024/01/16 02:02:11;;;;;;;9.73;4.80;;;;;;;0.32;96.32;97014.22;5061073;28;20123;-57
2024/01/16 02:04:36;;;;;;;10.15;5.30;;;;;;;0.25;95.69;97012.78;5063058;28;20052;-57
2024/01/16 02:07:21;;;;;;;8.50;4.50;;;;;;;0.26;95.15;97021.28;5072968;28;20059;-57
2024/01/16 02:09:47;;;;;;;12.93;5.70;;;;;;;0.25;95.02;97006.84;5080202;28;20047;-58
2024/01/16 02:12:31;;;;;;;10.38;5.93;;;;;;;0.33;96.91;97022.72;5057865;28;20638;-57
2024/01/16 02:15:16;;;;;;;10.25;4.03;;;;;;;0.26;96.26;97037.44;5064695;28;20051;-56
2024/01/16 02:17:42;;;;;;;9.73;4.35;;;;;;;-0.01;95.61;96959.28;5061545;28;20419;-57
2024/01/16 02:20:47;;;;;;;11.02;4.32;;;;;;;0.33;97.48;97017.59;5059588;28;20114;-56
2024/01/16 02:23:14;;;;;;;8.70;4.18;;;;;;;0.34;97.58;97006.50;5044012;28;20040;-57
2024/01/16 02:25:44;;;;;;;9.48;4.45;;;;;;;0.16;97.61;96982.44;5060836;28;20087;-57
2024/01/16 02:28:10;;;;;;;13.60;5.57;;;;;;;0.29;94.22;97016.06;5064515;28;20067;-58
2024/01/16 02:30:36;;;;;;;8.32;4.63;;;;;;;0.32;94.06;97018.50;5061491;28;20041;-54
2024/01/16 02:33:03;;;;;;;10.02;5.00;;;;;;;0.30;93.31;97012.63;5080525;28;20054;-60
2024/01/16 02:35:29;;;;;;;12.40;5.47;;;;;;;0.31;93.97;97019.41;5064127;28;20036;-57
2024/01/16 02:37:55;;;;;;;7.53;3.90;;;;;;;0.26;93.47;97017.00;5067754;28;20047;-55
2024/01/16 02:40:21;;;;;;;9.13;3.85;;;;;;;0.27;93.56;97022.94;5066579;28;20039;-57
2024/01/16 02:43:26;;;;;;;8.38;4.40;;;;;;;0.27;93.34;97026.31;5061186;28;20048;-54
2024/01/16 02:45:53;;;;;;;11.88;4.85;;;;;;;0.23;93.00;97024.78;5062773;28;20040;-58
2024/01/16 02:48:18;;;;;;;11.10;5.25;;;;;;;0.28;93.44;97016.94;5066669;28;20044;-56
2024/01/16 02:51:21;;;;;;;10.77;5.05;;;;;;;0.16;93.73;97002.09;5060131;28;20534;-57
2024/01/16 02:54:08;;;;;;;11.82;5.57;;;;;;;0.36;94.67;97036.25;5062067;28;20041;-58
2024/01/16 02:56:34;;;;;;;6.45;4.18;;;;;;;-0.02;92.33;96968.66;5059876;28;20037;-57
2024/01/16 02:59:00;;;;;;;9.98;5.38;;;;;;;0.32;91.63;97032.09;5063980;28;20500;-58
2024/01/16 03:01:26;;;;;;;7.63;4.35;;;;;;;0.35;92.13;97020.97;5061358;28;20087;-57
2024/01/16 03:03:51;;;;;;;10.00;5.30;;;;;;;0.36;93.32;97037.97;5065995;28;20474;-56
2024/01/16 03:06:24;;;;;;;12.45;5.95;;;;;;;0.33;92.63;97033.78;5064394;28;20609;-55
2024/01/16 03:09:08;;;;;;;10.25;4.90;;;;;;;0.30;92.51;97033.91;5067565;28;20044;-58
2024/01/16 03:11:34;;;;;;;8.05;4.25;;;;;;;0.33;93.97;97036.34;5048857;28;20036;-58
2024/01/16 03:14:19;;;;;;;8.90;4.28;;;;;;;0.36;94.95;97031.13;5065409;28;20462;-57
2024/01/16 03:16:45;;;;;;;8.93;4.63;;;;;;;0.33;93.41;97036.34;5064122;28;20093;-57
2024/01/16 03:19:12;;;;;;;11.93;5.60;;;;;;;0.21;93.10;97018.88;5066946;28;20049;-53
2024/01/16 03:21:38;;;;;;;7.50;4.03;;;;;;;0.08;92.10;96996.41;5063975;28;20041;-57
2024/01/16 03:24:05;;;;;;;8.30;4.40;;;;;;;0.24;90.08;97038.38;5066799;28;20722;-56
2024/01/16 03:26:32;;;;;;;9.75;5.35;;;;;;;0.09;90.68;97006.56;5067242;28;20037;-55
2024/01/16 03:28:59;;;;;;;11.85;5.43;;;;;;;0.28;91.51;97029.72;5032860;28;20040;-59
2024/01/16 03:31:25;;;;;;;10.55;4.07;;;;;;;0.26;91.76;97018.75;5055046;28;20052;-56
2024/01/16 03:33:51;;;;;;;10.40;4.72;;;;;;;0.14;92.73;97008.97;5065696;28;20040;-57
2024/01/16 03:36:17;;;;;;;13.52;5.72;;;;;;;0.05;93.01;96997.34;5061701;28;20068;-58
2024/01/16 03:39:02;;;;;;;12.05;5.68;;;;;;;0.27;94.32;97036.53;5066846;28;20147;-60
2024/01/16 03:41:28;;;;;;;14.40;5.88;;;;;;;0.02;93.68;96994.91;5060238;28;20036;-56
2024/01/16 03:43:56;;;;;;;6.95;3.33;;;;;;;0.08;95.02;96997.25;5065523;28;20050;-58
2024/01/16 03:46:23;;;;;;;8.10;4.33;;;;;;;0.02;93.96;96996.63;5048627;28;20039;-56
2024/01/16 03:48:49;;;;;;;11.25;4.93;;;;;;;0.18;91.27;97034.31;5062165;28;20290;-63
2024/01/16 03:51:15;;;;;;;11.02;5.03;;;;;;;0.18;91.23;97025.81;5065301;28;20423;-57
2024/01/16 03:54:00;;;;;;;10.45;5.47;;;;;;;0.27;93.16;97022.94;5065227;28;20571;-57
2024/01/16 03:56:26;;;;;;;8.70;3.67;;;;;;;0.37;95.52;97020.00;5063857;28;20040;-56
2024/01/16 03:58:51;;;;;;;11.88;5.78;;;;;;;0.34;95.76;97025.22;5047638;28;20448;-55
2024/01/16 04:01:17;;;;;;;9.75;5.55;;;;;;;0.33;95.82;97028.66;5062261;28;20109;-59
2024/01/16 04:03:43;;;;;;;9.73;4.97;;;;;;;0.09;95.15;96998.06;5066626;28;20044;-54
2024/01/16 04:06:17;;;;;;;6.28;3.80;;;;;;;0.29;94.49;97024.56;5057865;28;20047;-62
2024/01/16 04:09:02;;;;;;;13.23;6.43;;;;;;;0.30;93.00;97043.28;5028713;28;20040;-55
2024/01/16 04:11:29;;;;;;;11.32;4.95;;;;;;;0.27;92.87;97033.16;5042142;28;20512;-56
2024/01/16 04:13:55;;;;;;;9.80;5.18;;;;;;;0.21;91.83;97046.16;5066961;28;20056;-57
2024/01/16 04:19:06;;;;;;;13.07;6.07;;;;;;;0.17;91.16;97027.53;5068584;28;20610;-57
2024/01/16 04:21:32;;;;;;;15.55;5.93;;;;;;;0.22;92.25;97040.16;5073667;28;20044;-56
2024/01/16 04:23:57;;;;;;;7.90;4.38;;;;;;;0.18;92.40;97033.50;5071787;28;20070;-58
2024/01/16 04:26:24;;;;;;;8.77;4.65;;;;;;;0.15;92.07;97025.94;5075446;28;20055;-56
2024/01/16 04:28:50;;;;;;;15.05;5.97;;;;;;;0.15;92.21;97036.16;5076765;28;20044;-55
2024/01/16 04:31:19;;;;;;;11.63;6.15;;;;;;;0.16;93.03;97025.88;5071538;28;20066;-54
2024/01/16 04:34:03;;;;;;;9.63;4.18;;;;;;;0.21;94.33;97036.75;5072327;28;20044;-56
2024/01/16 04:36:29;;;;;;;12.85;5.85;;;;;;;0.16;93.16;97037.84;5067656;28;20662;-60
2024/01/16 04:38:55;;;;;;;11.95;4.88;;;;;;;0.09;91.42;97036.38;5065319;28;20106;-56
2024/01/16 04:41:21;;;;;;;13.90;5.70;;;;;;;0.08;89.73;97035.53;5060755;28;20569;-58
2024/01/16 04:43:47;;;;;;;12.07;6.10;;;;;;;0.06;89.94;97039.84;5063830;28;20086;-57
2024/01/16 04:46:14;;;;;;;11.57;5.72;;;;;;;0.04;90.23;97035.72;5063841;28;20515;-57
2024/01/16 04:48:40;;;;;;;12.32;5.40;;;;;;;0.10;90.97;97044.00;5061818;28;20146;-56
2024/01/16 04:51:07;;;;;;;11.10;5.50;;;;;;;0.09;90.92;97050.00;5059723;28;20070;-64
2024/01/16 04:53:52;;;;;;;11.18;5.80;;;;;;;0.03;89.12;97059.56;5059402;28;20147;-56
2024/01/16 04:56:18;;;;;;;9.88;4.75;;;;;;;0.05;89.46;97079.06;5062902;28;20075;-59
2024/01/16 04:58:45;;;;;;;11.35;5.47;;;;;;;-0.08;86.53;97063.34;5064745;28;20642;-55
2024/01/16 05:01:10;;;;;;;11.40;4.72;;;;;;;-0.30;86.60;97019.00;5064888;28;20048;-60
2024/01/16 05:03:36;;;;;;;9.23;3.95;;;;;;;-0.12;85.87;97063.50;5046719;28;20538;-60
2024/01/16 05:06:02;;;;;;;10.15;4.00;;;;;;;-0.12;85.71;97058.38;5064618;28;20041;-60
2024/01/16 05:08:47;;;;;;;9.23;4.40;;;;;;;-0.09;86.17;97061.66;5050486;28;20117;-57
2024/01/16 05:11:13;;;;;;;12.65;5.80;;;;;;;-0.13;85.49;97067.75;5061762;28;20472;-60
2024/01/16 05:16:29;;;;;;;5.15;3.53;;;;;;;-0.18;83.82;97067.09;5063960;28;20066;-59
2024/01/16 05:19:15;;;;;;;7.50;3.58;;;;;;;-0.10;85.13;97059.16;5047072;28;20063;-56
2024/01/16 05:21:41;;;;;;;12.05;4.80;;;;;;;-0.13;83.85;97072.88;5065605;28;20455;-58
2024/01/16 05:24:08;;;;;;;12.48;5.25;;;;;;;-0.36;84.07;97034.50;5063103;28;20037;-59
2024/01/16 05:26:34;;;;;;;10.32;4.15;;;;;;;-0.22;84.48;97040.00;5063147;28;20066;-54
2024/01/16 05:28:59;;;;;;;13.50;6.03;;;;;;;-0.15;83.93;97066.97;5064373;28;20036;-55
2024/01/16 05:31:44;;;;;;;15.65;6.25;;;;;;;-0.11;83.95;97073.66;5062867;28;20047;-51
2024/01/16 05:34:10;;;;;;;13.52;6.05;;;;;;;-0.06;84.75;97064.13;5063126;28;20040;-55
2024/01/16 05:39:21;;;;;;;10.88;5.57;;;;;;;-0.11;83.74;97058.34;5062922;28;20048;-56
2024/01/16 05:42:08;;;;;;;17.63;6.93;;;;;;;-0.01;84.47;97063.97;5060436;28;20105;-61
2024/01/16 05:44:53;;;;;;;14.68;5.85;;;;;;;-0.01;84.34;97063.97;5061946;28;20049;-54
2024/01/16 05:47:20;;;;;;;10.68;4.35;;;;;;;-0.18;84.74;97030.50;5078547;28;20048;-62
2024/01/16 05:50:05;;;;;;;12.85;5.70;;;;;;;-0.08;82.92;97059.94;5063196;28;20206;-62
2024/01/16 05:52:31;;;;;;;12.57;5.32;;;;;;;-0.05;84.12;97045.34;5060763;28;20040;-59
2024/01/16 05:54:58;;;;;;;17.25;6.75;;;;;;;0.00;84.43;97056.22;5063375;28;20049;-60
2024/01/16 05:57:23;;;;;;;12.90;5.70;;;;;;;-0.01;84.23;97054.59;5063807;28;20071;-62
2024/01/16 06:00:08;;;;;;;8.55;4.15;;;;;;;0.01;84.28;97054.50;5064966;28;20090;-62
2024/01/16 06:05:19;;;;;;;13.35;6.30;;;;;;;0.07;83.86;97054.31;5066315;28;20131;-59
2024/01/16 06:08:04;;;;;;;13.43;5.10;;;;;;;0.12;84.30;97054.13;5028626;28;20044;-58
2024/01/16 06:10:30;;;;;;;11.45;4.85;;;;;;;0.07;83.49;97056.03;5063592;28;20063;-60
2024/01/16 06:12:56;;;;;;;14.70;5.95;;;;;;;0.06;82.87;97055.19;5067715;28;20792;-61
2024/01/16 06:15:21;;;;;;;14.30;6.85;;;;;;;-0.09;82.73;97037.84;5069340;28;20241;-60
2024/01/16 06:17:47;;;;;;;10.95;3.15;;;;;;;0.09;82.62;97075.53;5067809;28;20793;-60
2024/01/16 06:20:13;;;;;;;17.88;6.82;;;;;;;0.04;80.77;97077.41;5065492;28;20535;-61
2024/01/16 06:22:39;;;;;;;10.38;4.53;;;;;;;0.05;80.50;97083.34;5065961;28;20044;-60
2024/01/16 06:25:23;;;;;;;10.48;5.85;;;;;;;0.05;80.25;97084.19;5066768;28;20040;-59
2024/01/16 06:27:49;;;;;;;11.65;5.00;;;;;;;-0.01;79.72;97076.72;5064728;28;20040;-59
2024/01/16 06:30:15;;;;;;;15.73;6.90;;;;;;;-0.10;79.27;97089.78;5067996;28;20055;-59
2024/01/16 06:32:41;;;;;;;13.25;6.13;;;;;;;-0.08;79.61;97088.88;5100599;28;20040;-60
2024/01/16 06:35:08;;;;;;;18.38;7.65;;;;;;;-0.11;79.70;97091.53;5064295;28;20062;-61
2024/01/16 06:37:34;;;;;;;13.80;5.15;;;;;;;-0.21;79.65;97064.63;5073870;28;20079;-60
2024/01/16 06:39:59;;;;;;;16.15;6.00;;;;;;;-0.08;79.96;97082.91;5066282;28;20044;-60
2024/01/16 06:42:25;;;;;;;11.00;4.63;;;;;;;-0.10;79.03;97093.19;5067886;28;20102;-59
2024/01/16 06:44:51;;;;;;;13.38;5.15;;;;;;;-0.13;78.69;97080.53;5066232;28;20098;-59
2024/01/16 06:47:17;;;;;;;14.30;6.35;;;;;;;-0.12;78.97;97086.47;5064483;28;20428;-61
2024/01/16 06:49:42;;;;;;;14.52;5.72;;;;;;;-0.08;79.16;97093.97;5067714;28;20036;-59
2024/01/16 06:52:27;;;;;;;10.25;4.10;;;;;;;-0.13;78.58;97089.91;5061485;28;20208;-60
2024/01/16 06:55:12;;;;;;;14.23;5.53;;;;;;;-0.21;78.14;97102.91;5067503;28;20036;-61
2024/01/16 06:57:38;;;;;;;13.02;5.68;;;;;;;-0.45;78.26;97070.53;5066466;28;20517;-63
2024/01/16 07:00:07;;;;;;;14.30;6.60;;;;;;;-0.29;78.24;97097.22;5068213;28;20075;-62
2024/01/16 07:02:33;;;;;;;11.70;5.45;;;;;;;-0.58;78.22;97059.09;5065047;28;20500;-61
2024/01/16 07:04:59;;;;;;;11.65;5.22;;;;;;;-0.44;78.22;97088.38;5059641;28;20036;-63
2024/01/16 07:07:25;;;;;;;17.25;6.30;;;;;;;-0.39;78.54;97072.06;5064681;28;20428;-60
2024/01/16 07:13:14;;;;;;;14.23;7.03;;;;;;;-0.34;78.51;97085.50;5057864;28;20049;-63
2024/01/16 07:15:40;;;;;;;15.40;6.03;;;;;;;-0.30;78.62;97100.66;5067130;28;20070;-60
2024/01/16 07:18:24;;;;;;;18.63;6.03;;;;;;;-0.28;78.99;97103.19;5067059;28;20458;-61
2024/01/16 07:20:50;;;;;;;11.25;4.47;;;;;;;-0.32;78.18;97112.66;5065615;28;20405;-61
2024/01/16 07:23:16;;;;;;;6.90;3.45;;;;;;;-0.49;77.75;97094.50;5066831;28;20044;-59
2024/01/16 07:25:42;;;;;;;12.02;5.28;;;;;;;-0.46;77.70;97110.53;5066767;28;20036;-61
2024/01/16 07:28:08;;;;;;;11.73;5.63;;;;;;;-0.64;78.27;97064.38;5067658;28;20068;-61
2024/01/16 07:30:34;;;;;;;12.80;5.70;;;;;;;-0.38;78.25;97105.19;5064879;28;20790;-61
2024/01/16 07:33:00;;;;;;;11.95;5.75;;;;;;;-0.44;77.71;97105.38;5066892;28;20048;-59
2024/01/16 07:35:26;;;;;;;15.40;5.53;;;;;;;-0.46;78.24;97095.22;5065914;28;20414;-60
2024/01/16 07:37:52;;;;;;;13.02;5.93;;;;;;;-0.38;78.25;97089.88;5066838;28;20044;-61
2024/01/16 07:40:18;;;;;;;13.00;4.85;;;;;;;-0.33;78.00;97100.78;5065186;28;20036;-63
2024/01/16 07:42:44;;;;;;;16.02;6.10;;;;;;;-0.35;77.94;97077.00;5053131;28;20150;-61
2024/01/16 07:45:28;;;;;;;11.25;5.25;;;;;;;-0.26;77.61;97083.56;5065540;28;20365;-62
2024/01/16 07:47:54;;;;;;;10.80;2.92;;;;;;;-0.24;77.52;97082.59;5060083;28;20045;-62
2024/01/16 07:50:20;;;;;;;12.50;5.28;;;;;;;-0.23;77.03;97086.81;5064392;28;20049;-61
2024/01/16 07:53:05;;;;;;;11.43;5.10;;;;;;;-0.21;77.00;97082.47;5063682;28;20055;-64
2024/01/16 07:55:31;;;;;;;9.98;4.75;;;;;;;-0.20;76.38;97068.00;5065510;28;20043;-61
2024/01/16 07:57:57;;;;;;;11.75;5.03;;;;;;;-0.22;75.97;97080.00;5082025;28;20032;-61
2024/01/16 08:00:24;;;;;;;9.63;4.75;;;;;;;-0.28;75.81;97075.09;5030875;28;20074;-61
2024/01/16 08:02:50;;;;;;;13.93;5.82;;;;;;;-0.44;75.68;97065.41;5045822;28;20071;-62
2024/01/16 08:05:16;;;;;;;8.98;4.22;;;;;;;-0.50;75.39;97042.63;5062776;28;20098;-61
2024/01/16 08:07:45;;;;;;;12.77;4.90;;;;;;;-0.27;74.96;97072.50;5058781;28;20047;-58
2024/01/16 08:10:11;;;;;;;8.75;4.80;;;;;;;-0.31;74.60;97060.69;5063290;28;20543;-60
2024/01/16 08:12:37;;;;;;;9.95;4.60;;;;;;;-0.36;74.56;97054.09;5047993;28;20048;-61
2024/01/16 08:15:05;;;;;;;12.70;5.50;;;;;;;-0.11;74.81;97075.38;5047820;28;20057;-60
2024/01/16 08:17:31;;;;;;;11.52;4.28;;;;;;;0.03;73.84;97080.00;5063503;28;20174;-61
2024/01/16 08:19:58;;;;;;;14.40;4.93;;;;;;;-0.04;73.08;97075.09;5063399;28;20039;-60
2024/01/16 08:22:24;;;;;;;11.93;4.75;;;;;;;-0.04;72.23;97064.03;5068817;28;20044;-61
2024/01/16 08:24:49;;;;;;;11.23;4.45;;;;;;;-0.01;72.52;97048.63;5065676;28;20040;-61
2024/01/16 08:27:16;;;;;;;13.48;5.72;;;;;;;-0.10;72.17;97025.97;5064946;28;20043;-59
2024/01/16 08:29:43;;;;;;;13.23;6.25;;;;;;;0.16;72.47;97058.28;5056389;28;20903;-62
2024/01/16 08:32:27;;;;;;;13.52;5.38;;;;;;;0.06;71.09;97056.91;5066666;28;20040;-60
2024/01/16 08:34:53;;;;;;;12.77;5.35;;;;;;;0.00;71.08;97046.00;5054856;28;20530;-62
2024/01/16 08:37:37;;;;;;;8.70;4.00;;;;;;;0.16;70.74;97042.94;5058122;28;20040;-60
2024/01/16 08:40:04;;;;;;;11.98;4.55;;;;;;;-0.06;69.83;97009.66;5066002;28;20515;-60
2024/01/16 08:42:30;;;;;;;10.57;4.18;;;;;;;0.24;70.34;97041.78;5065936;28;20124;-59
2024/01/16 08:44:56;;;;;;;9.38;5.05;;;;;;;0.16;69.08;97013.09;5065908;28;20078;-60
2024/01/16 08:47:22;;;;;;;9.48;4.65;;;;;;;0.45;69.18;97040.16;5066069;28;20786;-61
2024/01/16 08:49:48;;;;;;;13.50;5.28;;;;;;;0.53;68.94;97045.81;5098114;28;20032;-61
2024/01/16 08:52:14;;;;;;;9.82;3.88;;;;;;;0.73;69.36;97048.47;5057782;28;20480;-60
2024/01/16 08:55:17;;;;;;;8.85;4.07;;;;;;;0.81;68.07;97060.97;5062441;28;20064;-61
2024/01/16 08:58:01;;;;;;;10.65;5.22;;;;;;;0.97;68.24;97040.75;5065618;28;20608;-61
2024/01/16 09:00:27;;;;;;;12.13;5.43;;;;;;;1.25;67.60;97049.88;5065524;28;20048;-61
2024/01/16 09:03:11;;;;;;;8.93;5.05;;;;;;;1.39;67.58;97053.59;5060918;28;20154;-60
2024/01/16 09:05:38;;;;;;;12.52;5.13;;;;;;;1.41;67.68;97062.06;5062570;28;20089;-60
2024/01/16 09:10:50;;;;;;;9.07;3.60;;;;;;;1.25;67.02;97056.72;5063102;28;20128;-61
2024/01/16 09:13:16;;;;;;;10.95;5.25;;;;;;;1.13;67.25;97049.50;5056156;28;20045;-62
2024/01/16 09:15:42;;;;;;;16.38;5.72;;;;;;;1.06;67.23;97036.13;5058795;28;20505;-58
2024/01/16 09:18:08;;;;;;;13.07;5.10;;;;;;;1.10;66.82;97037.66;5065059;28;20758;-62
2024/01/16 09:20:34;;;;;;;14.20;6.57;;;;;;;1.09;67.33;97033.47;5063221;28;20040;-60
2024/01/16 09:23:00;;;;;;;9.18;4.93;;;;;;;1.33;67.28;97023.13;5063942;28;20504;-60
2024/01/16 09:25:27;;;;;;;10.25;4.60;;;;;;;1.09;66.31;96989.13;5047601;28;20063;-60
2024/01/16 09:33:23;;;;;;;13.50;5.55;;;;;;;1.10;65.96;96972.91;5064638;28;20036;-60
2024/01/16 09:35:49;;;;;;;11.70;5.50;;;;;;;1.70;66.20;97026.69;5062200;28;20045;-61
2024/01/16 09:38:15;;;;;;;8.90;5.20;;;;;;;1.52;65.19;97006.94;5063539;28;20046;-62
2024/01/16 09:40:59;;;;;;;14.73;6.05;;;;;;;1.51;65.01;97038.59;5061405;28;20045;-60
2024/01/16 09:43:27;;;;;;;11.10;5.20;;;;;;;1.54;65.22;97027.38;5063582;28;20440;-61
2024/01/16 09:48:59;;;;;;;12.27;6.22;;;;;;;1.50;65.09;97033.53;5063483;28;20049;-60
2024/01/16 09:51:25;;;;;;;8.30;4.03;;;;;;;1.34;65.22;97040.16;5061218;28;20048;-60
2024/01/16 09:53:51;;;;;;;11.43;5.45;;;;;;;1.16;65.04;97029.75;5078468;28;20620;-60
2024/01/16 09:56:21;;;;;;;13.85;6.00;;;;;;;1.28;65.85;97034.38;5063959;28;20119;-61
2024/01/16 09:58:49;;;;;;;13.40;5.47;;;;;;;1.37;65.21;97030.63;5097516;28;20037;-61
2024/01/16 10:01:16;;;;;;;10.07;4.70;;;;;;;1.37;65.30;97033.19;5045959;28;20045;-62
2024/01/16 10:03:44;;;;;;;12.95;5.43;;;;;;;1.01;65.60;97001.38;5056569;28;20145;-60
2024/01/16 10:06:11;;;;;;;14.00;6.03;;;;;;;1.08;65.67;97001.09;5027820;28;20061;-62
2024/01/16 10:08:37;;;;;;;15.07;6.32;;;;;;;1.21;65.23;97027.00;5059769;28;20041;-60
2024/01/16 10:11:03;;;;;;;11.25;3.92;;;;;;;0.95;65.22;97022.91;5064724;28;20045;-61
2024/01/16 10:13:47;;;;;;;9.85;5.05;;;;;;;0.89;65.89;97022.34;5064264;28;20131;-62
2024/01/16 10:16:13;;;;;;;12.20;5.38;;;;;;;0.89;65.74;97012.13;5065148;28;20143;-63
2024/01/16 10:19:08;;;;;;;5.03;2.70;;;;;;;0.91;65.41;97005.19;5063731;28;20060;-62
2024/01/16 10:21:33;;;;;;;9.73;4.50;;;;;;;0.77;65.64;97003.19;5062305;28;20043;-62
2024/01/16 10:24:11;;;;;;;12.90;5.32;;;;;;;0.77;65.57;97001.47;5045228;28;20041;-61
2024/01/16 10:26:37;;;;;;;13.85;6.00;;;;;;;0.98;65.68;96997.25;5064601;28;20087;-62
2024/01/16 10:29:04;;;;;;;10.45;5.10;;;;;;;0.80;65.83;96967.25;5064433;28;20044;-60
2024/01/16 10:31:31;;;;;;;12.77;5.53;;;;;;;1.02;66.25;97003.06;5057323;28;20036;-61
2024/01/16 10:33:57;;;;;;;12.25;5.38;;;;;;;1.07;66.10;96993.47;5062727;28;20040;-60
2024/01/16 10:36:25;;;;;;;11.20;4.53;;;;;;;1.28;66.54;97001.13;5045069;28;20082;-61
2024/01/16 10:38:57;;;;;;;13.40;4.72;;;;;;;1.30;66.00;96990.84;5055936;28;20044;-62
2024/01/16 10:41:26;;;;;;;13.20;6.60;;;;;;;0.97;65.83;96938.47;5054048;28;20037;-63
2024/01/16 10:44:38;;;;;;;14.13;5.38;;;;;;;1.21;65.79;96989.47;5060912;28;20543;-63
2024/01/16 10:47:11;;;;;;;11.95;5.20;;;;;;;1.42;65.91;96986.91;5065129;28;20758;-61
2024/01/16 10:49:38;;;;;;;12.95;5.63;;;;;;;1.25;65.46;96985.91;5065253;28;20093;-62
2024/01/16 10:52:09;;;;;;;9.88;4.93;;;;;;;1.20;65.53;96974.19;5064877;28;20135;-63
2024/01/16 10:54:38;;;;;;;11.25;4.72;;;;;;;1.11;65.26;96983.06;5066123;28;20117;-62
2024/01/16 10:57:04;;;;;;;9.07;3.80;;;;;;;0.90;65.60;96940.44;5066070;28;20040;-64
2024/01/16 10:59:35;;;;;;;12.65;5.40;;;;;;;0.99;65.71;96972.50;5082312;28;20048;-63
2024/01/16 11:02:02;;;;;;;11.90;6.40;;;;;;;0.98;65.66;96970.81;5062168;28;20500;-62
2024/01/16 11:04:28;;;;;;;11.73;6.03;;;;;;;1.09;66.18;96974.63;5057705;28;20047;-62
2024/01/16 11:06:54;;;;;;;14.73;6.20;;;;;;;1.18;65.63;96968.28;5047878;28;20483;-62
2024/01/16 11:09:20;;;;;;;12.70;5.70;;;;;;;0.99;65.65;96954.59;5067686;28;20033;-62
2024/01/16 11:11:47;;;;;;;11.52;5.60;;;;;;;0.93;66.07;96971.00;5061675;28;20095;-62
2024/01/16 11:14:14;;;;;;;17.00;6.00;;;;;;;0.80;65.96;96970.66;5067351;28;20047;-62
2024/01/16 11:16:41;;;;;;;12.80;5.88;;;;;;;0.78;66.64;96962.22;5064820;28;20037;-63
2024/01/16 11:19:08;;;;;;;15.30;5.75;;;;;;;0.57;66.51;96929.81;5066614;28;20047;-63
2024/01/16 11:21:35;;;;;;;11.82;5.03;;;;;;;0.79;67.01;96968.13;5090745;28;20117;-62
2024/01/16 11:24:02;;;;;;;13.68;5.60;;;;;;;0.72;66.63;96959.06;5063396;28;20609;-63
2024/01/16 11:26:33;;;;;;;8.35;4.28;;;;;;;0.60;66.63;96960.38;5062615;28;20048;-62
2024/01/16 11:29:01;;;;;;;14.50;6.32;;;;;;;0.68;67.34;96953.22;5048487;28;20047;-63
2024/01/16 11:31:28;;;;;;;11.43;5.22;;;;;;;0.70;66.40;96953.16;5062960;28;20052;-61
2024/01/16 11:33:53;;;;;;;13.63;6.30;;;;;;;0.56;66.71;96951.16;5064807;28;20113;-62
2024/01/16 11:36:54;;;;;;;14.57;6.45;;;;;;;0.50;66.92;96955.66;5065314;28;20052;-68
2024/01/16 11:39:40;;;;;;;15.50;6.20;;;;;;;0.55;67.82;96941.81;5079843;28;20048;-63
2024/01/16 11:42:08;;;;;;;15.60;6.00;;;;;;;0.60;66.97;96939.09;5098255;28;20055;-62
2024/01/16 11:44:51;;;;;;;11.88;5.90;;;;;;;0.71;67.15;96942.88;5063976;28;20059;-61
2024/01/16 11:47:19;;;;;;;12.38;5.35;;;;;;;0.70;67.21;96936.09;5048101;28;20086;-62
2024/01/16 11:49:46;;;;;;;14.27;6.13;;;;;;;0.80;67.51;96936.56;5066726;28;20270;-62
2024/01/16 11:52:13;;;;;;;14.13;5.80;;;;;;;0.83;67.26;96936.47;5059883;28;20055;-62
2024/01/16 11:54:41;;;;;;;15.60;6.47;;;;;;;0.76;67.28;96938.44;5064171;28;20051;-64
2024/01/16 11:57:35;;;;;;;15.13;6.97;;;;;;;0.67;67.45;96937.97;5081379;28;20098;-63
2024/01/16 12:00:12;;;;;;;14.57;5.88;;;;;;;0.57;67.19;96946.88;5066519;28;20097;-63
2024/01/16 12:05:28;;;;;;;11.40;5.00;;;;;;;0.40;66.87;96934.75;5074937;28;20413;-64
2024/01/16 12:07:54;;;;;;;12.93;5.07;;;;;;;0.46;66.73;96915.78;5060325;28;20147;-62
2024/01/16 12:10:48;;;;;;;11.63;5.30;;;;;;;0.40;66.63;96915.13;5062321;28;20044;-63
2024/01/16 12:13:14;;;;;;;10.50;3.33;;;;;;;0.28;66.32;96915.59;5065766;28;20036;-62
2024/01/16 12:15:40;;;;;;;13.00;5.10;;;;;;;-0.21;66.35;96857.84;5065875;28;20510;-65
2024/01/16 12:18:06;;;;;;;9.50;4.47;;;;;;;0.17;66.49;96917.72;5046203;28;20128;-63
2024/01/16 12:20:34;;;;;;;11.50;4.88;;;;;;;0.18;66.63;96923.66;5061853;28;20543;-63
2024/01/16 12:25:52;;;;;;;10.32;4.60;;;;;;;0.28;67.17;96915.59;5064380;28;20702;-64
2024/01/16 12:28:19;;;;;;;;;;;;;;;0.30;67.05;96924.03;5064504;28;20405;-63